Time;durP1;ratioP1;P1;durP2;ratioP2;P2;SDS_P1;SDS_P2;PMS_P1;PMS_P2;Temp;Humidity;BMP_temperature;BMP_pressure;BME280_temperature;BME280_humidity;BME280_pressure;Samples;Min_cycle;Max_cycle;Signal;HPM_P1;HPM_P2
2022/12/20 00:01:32;;;;;;;9.65;4.45;;;;;;;7.25;100.00;101166.31;4961687;28;20043;-78
2022/12/20 00:04:02;;;;;;;7.10;5.63;;;;;;;7.27;100.00;101175.97;4972064;28;20054;-79
2022/12/20 00:06:32;;;;;;;8.10;5.50;;;;;;;7.27;100.00;101162.00;4988160;28;20061;-78
2022/12/20 00:09:01;;;;;;;6.32;4.70;;;;;;;7.28;100.00;101167.28;4991250;28;20069;-79
2022/12/20 00:11:30;;;;;;;8.75;5.45;;;;;;;7.27;100.00;101178.59;4935521;28;20058;-78
2022/12/20 00:13:58;;;;;;;8.85;5.10;;;;;;;7.28;100.00;101171.59;4972974;28;20046;-78
2022/12/20 00:16:27;;;;;;;7.90;5.68;;;;;;;7.28;100.00;101168.97;4979734;28;22989;-78
2022/12/20 00:19:01;;;;;;;9.63;5.07;;;;;;;7.29;100.00;101165.53;4973450;28;20062;-79
2022/12/20 00:21:29;;;;;;;6.95;5.03;;;;;;;7.29;100.00;101162.91;4989409;28;20054;-78
2022/12/20 00:23:58;;;;;;;5.47;4.97;;;;;;;7.28;100.00;101162.03;4993631;28;20047;-78
2022/12/20 00:26:28;;;;;;;12.57;5.72;;;;;;;7.28;100.00;101155.88;4940026;28;22968;-79
2022/12/20 00:28:56;;;;;;;7.20;5.13;;;;;;;7.28;100.00;101148.91;4996863;28;20046;-79
2022/12/20 00:31:25;;;;;;;9.77;5.15;;;;;;;7.29;100.00;101150.69;4992756;28;20054;-78
2022/12/20 00:33:54;;;;;;;5.85;4.68;;;;;;;7.27;100.00;101155.00;4965315;28;20054;-78
2022/12/20 00:36:24;;;;;;;6.80;4.43;;;;;;;7.27;100.00;101154.13;4981034;28;20061;-78
2022/12/20 00:38:54;;;;;;;6.20;5.32;;;;;;;7.27;100.00;101143.63;4985036;28;20042;-79
2022/12/20 00:41:27;;;;;;;7.87;4.87;;;;;;;7.23;100.00;101148.81;4992410;28;20081;-79
2022/12/20 00:43:55;;;;;;;6.38;4.65;;;;;;;7.24;100.00;101144.47;4944870;28;20042;-79
2022/12/20 00:46:23;;;;;;;6.63;4.70;;;;;;;7.22;100.00;101151.38;4987588;28;20050;-78
2022/12/20 00:48:54;;;;;;;7.90;4.72;;;;;;;7.19;100.00;101146.97;4968396;28;20030;-79
2022/12/20 00:51:27;;;;;;;7.43;4.82;;;;;;;7.18;100.00;101155.72;4992929;28;20819;-79
2022/12/20 00:53:55;;;;;;;5.90;4.55;;;;;;;7.19;100.00;101153.97;4961656;28;20081;-79
2022/12/20 00:56:23;;;;;;;8.60;4.45;;;;;;;7.22;100.00;101151.38;4992149;28;20039;-78
2022/12/20 00:58:57;;;;;;;6.10;4.78;;;;;;;7.24;100.00;101154.97;4962010;28;20389;-79
2022/12/20 01:01:30;;;;;;;6.68;4.90;;;;;;;7.25;100.00;101148.84;4992678;28;20053;-79
2022/12/20 01:04:00;;;;;;;5.03;4.40;;;;;;;7.24;100.00;101141.84;4978839;28;20069;-78
2022/12/20 01:06:29;;;;;;;7.28;4.30;;;;;;;7.23;100.00;101140.94;4973984;28;20057;-79
2022/12/20 01:08:57;;;;;;;7.85;4.80;;;;;;;7.28;100.00;101137.53;4992886;28;20042;-78
2022/12/20 01:11:28;;;;;;;4.88;4.35;;;;;;;7.30;100.00;101138.47;4992633;28;20057;-78
2022/12/20 01:13:58;;;;;;;5.85;4.30;;;;;;;7.31;100.00;101135.84;4965955;28;20033;-79
2022/12/20 01:16:33;;;;;;;6.03;3.70;;;;;;;7.32;100.00;101132.41;5000651;28;20054;-79
2022/12/20 01:19:02;;;;;;;4.03;3.72;;;;;;;7.32;100.00;101137.66;4991069;28;20119;-79
2022/12/20 01:21:32;;;;;;;6.00;4.50;;;;;;;7.33;100.00;101138.53;4967079;28;20432;-79
2022/12/20 01:24:03;;;;;;;6.72;3.40;;;;;;;7.33;100.00;101142.00;4997374;28;20038;-78
2022/12/20 01:26:30;;;;;;;6.47;3.67;;;;;;;7.33;100.00;101131.53;4991396;28;20581;-78
2022/12/20 01:28:59;;;;;;;4.85;3.88;;;;;;;7.36;100.00;101134.22;4981969;28;20054;-79
2022/12/20 01:31:28;;;;;;;7.22;4.18;;;;;;;7.38;100.00;101139.50;4963365;28;20081;-79
2022/12/20 01:33:57;;;;;;;8.05;4.03;;;;;;;7.41;100.00;101126.47;4994201;28;20039;-79
2022/12/20 01:36:28;;;;;;;5.30;3.88;;;;;;;7.46;100.00;101131.81;4976164;28;20795;-79
2022/12/20 01:38:57;;;;;;;4.32;3.88;;;;;;;7.48;100.00;101135.34;4975698;28;20067;-79
2022/12/20 01:41:27;;;;;;;7.38;4.03;;;;;;;7.53;100.00;101129.34;4990532;28;20057;-78
2022/12/20 01:43:57;;;;;;;6.13;3.75;;;;;;;7.56;100.00;101134.66;4993848;28;20439;-79
2022/12/20 01:46:27;;;;;;;5.97;3.92;;;;;;;7.58;100.00;101137.28;4964122;28;20057;-80
2022/12/20 01:48:58;;;;;;;5.18;3.15;;;;;;;7.60;100.00;101125.09;4992527;28;20053;-78
2022/12/20 01:51:28;;;;;;;3.72;3.35;;;;;;;7.59;100.00;101121.56;4963104;28;20046;-79
2022/12/20 01:54:04;;;;;;;5.30;3.55;;;;;;;7.62;100.00;101115.53;4993549;28;20061;-79
2022/12/20 01:56:33;;;;;;;4.65;3.53;;;;;;;7.62;100.00;101112.91;4990747;28;20043;-79
2022/12/20 01:59:01;;;;;;;4.97;3.58;;;;;;;7.63;100.00;101092.81;4961314;28;20069;-79
2022/12/20 02:01:28;;;;;;;6.47;3.45;;;;;;;7.65;100.00;101106.81;4948523;28;20057;-78
2022/12/20 02:03:56;;;;;;;6.15;3.30;;;;;;;7.66;100.00;101108.59;4990216;28;20044;-79
2022/12/20 02:06:25;;;;;;;6.13;3.75;;;;;;;7.64;100.00;101100.69;4964788;28;20065;-79
2022/12/20 02:08:57;;;;;;;3.58;3.28;;;;;;;7.65;100.00;101097.22;4963562;28;20512;-78
2022/12/20 02:11:43;;;;;;;5.38;3.60;;;;;;;7.65;100.00;101104.19;4944258;28;20058;-79
2022/12/20 02:14:31;;;;;;;6.85;3.13;;;;;;;7.62;100.00;101097.16;4991817;28;20050;-79
2022/12/20 02:17:13;;;;;;;4.72;3.53;;;;;;;7.61;100.00;101096.25;4940270;28;20044;-79
2022/12/20 02:19:58;;;;;;;5.03;3.15;;;;;;;7.61;100.00;101093.63;4980332;28;20412;-79
2022/12/20 02:22:41;;;;;;;3.47;3.17;;;;;;;7.63;100.00;101105.91;4964427;28;20050;-79
2022/12/20 02:25:19;;;;;;;4.13;2.92;;;;;;;7.65;100.00;101097.22;4991662;28;20046;-78
2022/12/20 02:27:52;;;;;;;3.58;3.25;;;;;;;7.69;100.00;101087.66;4987710;28;20047;-79
2022/12/20 02:30:25;;;;;;;3.88;3.28;;;;;;;7.70;100.00;101098.19;4965674;28;20050;-78
2022/12/20 02:32:59;;;;;;;5.30;3.55;;;;;;;7.72;100.00;101095.59;4954600;28;20046;-78
2022/12/20 02:35:34;;;;;;;5.60;3.40;;;;;;;7.72;100.00;101087.72;4990863;28;20265;-77
2022/12/20 02:38:23;;;;;;;5.20;3.40;;;;;;;7.71;100.00;101086.84;4966176;28;20050;-78
2022/12/20 02:40:57;;;;;;;3.90;2.88;;;;;;;7.72;100.00;101083.34;4989935;28;20057;-77
2022/12/20 02:46:18;;;;;;;3.38;3.08;;;;;;;7.73;100.00;101087.75;4988439;28;20058;-78
2022/12/20 02:48:47;;;;;;;;;;;;;;;7.71;100.00;101086.84;4956662;28;20055;-77
2022/12/20 02:51:19;;;;;;;4.38;3.42;;;;;;;7.72;100.00;101083.34;4991210;28;19928;-78
2022/12/20 02:53:46;;;;;;;7.95;3.13;;;;;;;7.72;100.00;101072.88;4982128;28;20053;-78
2022/12/20 02:56:45;;;;;;;4.65;3.58;;;;;;;7.74;100.00;101078.16;5006827;28;20046;-79
2022/12/20 02:59:20;;;;;;;3.03;2.75;;;;;;;7.75;100.00;101072.03;4960624;28;20057;-77
2022/12/20 03:01:51;;;;;;;4.82;3.05;;;;;;;7.73;100.00;101069.41;4992635;28;20049;-78
2022/12/20 03:04:22;;;;;;;4.10;3.33;;;;;;;7.75;100.00;101066.78;4953212;28;20053;-78
2022/12/20 03:06:56;;;;;;;6.93;3.88;;;;;;;7.75;100.00;101066.78;4977600;28;20061;-78
2022/12/20 03:09:24;;;;;;;6.03;3.80;;;;;;;7.78;100.00;101069.47;4980074;28;20849;-78
2022/12/20 03:11:52;;;;;;;6.93;3.45;;;;;;;7.78;100.00;101062.47;4975859;28;20054;-78
2022/12/20 03:14:20;;;;;;;6.03;3.60;;;;;;;7.79;100.00;101063.38;4973193;28;20058;-78
2022/12/20 03:16:49;;;;;;;4.13;3.15;;;;;;;7.80;100.00;101058.13;4961352;28;20050;-78
2022/12/20 03:19:17;;;;;;;4.32;3.42;;;;;;;7.83;100.00;101061.69;4930953;28;20129;-78
2022/12/20 03:21:45;;;;;;;5.63;3.28;;;;;;;7.83;100.00;101059.06;4989774;28;20042;-78
2022/12/20 03:24:13;;;;;;;4.20;3.78;;;;;;;7.80;100.00;101050.25;4953564;28;20061;-78
2022/12/20 03:26:41;;;;;;;8.00;4.70;;;;;;;7.79;100.00;101064.25;4971785;28;20050;-78
2022/12/20 03:29:09;;;;;;;5.15;3.70;;;;;;;7.80;100.00;101054.63;5009363;28;20706;-79
2022/12/20 03:31:37;;;;;;;7.40;3.72;;;;;;;7.78;100.00;101054.59;5000984;28;20043;-80
2022/12/20 03:34:05;;;;;;;8.40;3.80;;;;;;;7.75;100.00;101051.03;4985238;28;20058;-79
2022/12/20 03:36:34;;;;;;;4.53;4.05;;;;;;;7.72;100.00;101062.38;4948891;28;20051;-79
2022/12/20 03:39:05;;;;;;;4.80;3.72;;;;;;;7.71;100.00;101041.34;4956178;28;20053;-79
2022/12/20 03:41:36;;;;;;;5.35;4.28;;;;;;;7.70;100.00;101039.59;4967968;28;20073;-79
2022/12/20 03:44:04;;;;;;;7.53;3.80;;;;;;;7.66;100.00;101030.78;5003888;28;20431;-78
2022/12/20 03:46:32;;;;;;;4.75;3.88;;;;;;;7.64;100.00;101037.75;4978707;28;20046;-79
2022/12/20 03:49:00;;;;;;;4.68;4.00;;;;;;;7.62;100.00;101049.97;4956830;28;20046;-79
2022/12/20 03:51:28;;;;;;;5.60;3.67;;;;;;;7.61;100.00;101041.19;4932872;28;20054;-79
2022/12/20 03:53:56;;;;;;;5.88;3.67;;;;;;;7.59;100.00;101028.91;4982989;28;20051;-79
2022/12/20 03:56:35;;;;;;;6.25;4.05;;;;;;;7.57;100.00;101041.13;4963590;28;20043;-79
2022/12/20 03:59:03;;;;;;;4.68;4.18;;;;;;;7.57;100.00;101042.00;4964574;28;20397;-79
2022/12/20 04:01:35;;;;;;;5.88;3.70;;;;;;;7.59;100.00;101052.50;4992475;28;20054;-79
2022/12/20 04:04:04;;;;;;;4.47;3.97;;;;;;;7.58;100.00;101046.41;4983662;28;20054;-79
2022/12/20 04:06:31;;;;;;;5.22;3.70;;;;;;;7.58;100.00;101042.84;4945763;28;20062;-79
2022/12/20 04:08:59;;;;;;;4.72;3.80;;;;;;;7.56;100.00;101050.72;4946326;28;20059;-79
2022/12/20 04:11:32;;;;;;;5.30;4.30;;;;;;;7.57;100.00;101051.59;4933502;28;20054;-79
2022/12/20 04:14:05;;;;;;;7.15;4.20;;;;;;;7.55;100.00;101054.19;4975443;28;20050;-79
2022/12/20 04:16:34;;;;;;;6.00;4.75;;;;;;;7.55;100.00;101058.56;4989145;28;20058;-78
2022/12/20 04:19:01;;;;;;;7.55;4.75;;;;;;;7.54;100.00;101062.94;4991375;28;20400;-78
2022/12/20 04:21:35;;;;;;;7.20;4.70;;;;;;;7.54;100.00;101059.41;4945464;28;20046;-78
2022/12/20 04:24:04;;;;;;;6.25;4.63;;;;;;;7.53;100.00;101053.28;4988538;28;20058;-78
2022/12/20 04:26:45;;;;;;;4.68;4.18;;;;;;;7.54;100.00;101059.41;4936307;28;20047;-78
2022/12/20 04:29:14;;;;;;;5.07;4.38;;;;;;;7.54;100.00;101059.41;4978855;28;20051;-78
2022/12/20 04:31:43;;;;;;;5.63;4.50;;;;;;;7.56;100.00;101060.31;4960334;28;20386;-78
2022/12/20 04:34:11;;;;;;;8.38;4.70;;;;;;;7.56;100.00;101057.69;4973589;28;20069;-78
2022/12/20 04:36:40;;;;;;;5.93;4.43;;;;;;;7.57;100.00;101051.59;4964879;28;20043;-78
2022/12/20 04:39:14;;;;;;;7.20;4.47;;;;;;;7.58;100.00;101048.09;4928836;28;20039;-78
2022/12/20 04:42:07;;;;;;;5.28;4.55;;;;;;;7.57;100.00;101052.47;4952462;28;20070;-78
2022/12/20 04:44:35;;;;;;;5.43;4.15;;;;;;;7.59;100.00;101037.66;4987177;28;20059;-78
2022/12/20 04:47:04;;;;;;;6.70;4.78;;;;;;;7.61;100.00;101040.31;4973858;28;20050;-78
2022/12/20 04:49:32;;;;;;;8.68;4.65;;;;;;;7.60;100.00;101030.69;4971981;28;20046;-78
2022/12/20 04:53:46;;;;;;;7.90;4.80;;;;;;;7.61;100.00;101027.19;4957835;28;20061;-78
2022/12/20 04:54:47;;;;;;;8.20;5.03;;;;;;;7.61;100.00;101029.81;4987137;28;20420;-77
2022/12/20 04:57:23;;;;;;;9.52;5.65;;;;;;;7.59;100.00;101023.66;4949604;28;20049;-78
2022/12/20 04:59:51;;;;;;;7.55;4.97;;;;;;;7.59;100.00;101023.66;4989563;28;20050;-78
2022/12/20 05:02:19;;;;;;;7.40;5.22;;;;;;;7.58;100.00;101022.78;4969064;28;20059;-78
2022/12/20 05:04:50;;;;;;;6.75;4.78;;;;;;;7.61;100.00;101019.31;4989493;28;20051;-78
2022/12/20 05:07:18;;;;;;;12.30;5.50;;;;;;;7.63;100.00;101016.75;4963476;28;20034;-79
2022/12/20 05:09:50;;;;;;;5.22;4.55;;;;;;;7.67;100.00;101022.06;4937148;28;20050;-80
2022/12/20 05:12:18;;;;;;;6.03;4.97;;;;;;;7.70;100.00;101026.50;4962269;28;20050;-79
2022/12/20 05:14:45;;;;;;;5.72;5.22;;;;;;;7.71;100.00;101023.91;4973624;28;20058;-79
2022/12/20 05:17:15;;;;;;;5.05;4.53;;;;;;;7.75;100.00;101016.94;4987175;28;20049;-78
2022/12/20 05:19:43;;;;;;;7.38;4.78;;;;;;;7.76;100.00;101006.47;4958055;28;20504;-78
2022/12/20 05:27:58;;;;;;;6.78;4.85;;;;;;;7.85;100.00;101003.13;4981709;28;20055;-78
2022/12/20 05:30:29;;;;;;;;;;;;;;;7.89;100.00;101004.06;4974732;28;20054;-78
2022/12/20 05:32:56;;;;;;;6.95;4.63;;;;;;;7.89;100.00;101006.69;4971582;28;19926;-78
2022/12/20 05:35:25;;;;;;;8.13;4.20;;;;;;;7.89;100.00;101004.94;4972295;28;20050;-79
2022/12/20 05:38:01;;;;;;;5.78;4.85;;;;;;;7.91;100.00;100995.38;4943990;28;20090;-78
2022/12/20 05:40:28;;;;;;;5.63;4.50;;;;;;;7.94;100.00;100999.75;4901906;29;20052;-77
2022/12/20 05:42:56;;;;;;;6.80;4.28;;;;;;;7.97;100.00;101005.06;4968423;28;20055;-77
2022/12/20 05:45:32;;;;;;;6.55;5.07;;;;;;;7.99;100.00;100998.09;4941057;28;20051;-78
2022/12/20 05:48:04;;;;;;;6.57;4.63;;;;;;;8.01;100.00;100996.38;4944028;29;20490;-78
2022/12/20 05:50:36;;;;;;;5.20;4.15;;;;;;;8.03;100.00;100988.53;4946679;28;20058;-78
2022/12/20 05:53:27;;;;;;;6.30;4.75;;;;;;;8.06;100.00;100978.09;4928525;28;20096;-78
2022/12/20 05:55:58;;;;;;;5.45;4.30;;;;;;;8.07;100.00;100980.75;4914119;28;20150;-78
2022/12/20 05:58:30;;;;;;;5.40;4.88;;;;;;;8.07;100.00;100979.84;4950033;28;20695;-77
2022/12/20 06:01:06;;;;;;;4.82;4.00;;;;;;;8.10;100.00;100978.16;4926171;29;20051;-78
2022/12/20 06:03:39;;;;;;;4.63;4.20;;;;;;;8.10;100.00;100978.16;4949389;28;20063;-78
2022/12/20 06:06:11;;;;;;;5.95;4.43;;;;;;;8.12;100.00;100980.81;4969211;28;20050;-78
2022/12/20 06:08:44;;;;;;;4.45;4.05;;;;;;;8.12;100.00;100976.44;4946574;28;20039;-78
2022/12/20 06:11:18;;;;;;;5.20;3.83;;;;;;;8.15;100.00;100978.25;4923858;28;20052;-78
2022/12/20 06:13:58;;;;;;;4.95;4.45;;;;;;;8.17;100.00;100985.28;4940063;28;20984;-78
2022/12/20 06:16:26;;;;;;;4.60;4.20;;;;;;;8.19;100.00;100977.44;4966330;28;20055;-79
2022/12/20 06:18:55;;;;;;;5.78;4.07;;;;;;;8.20;100.00;100973.94;4935451;29;20047;-78
2022/12/20 06:21:23;;;;;;;10.05;3.53;;;;;;;8.19;100.00;100966.94;4953495;28;20051;-78
2022/12/20 06:23:53;;;;;;;6.35;3.92;;;;;;;8.18;100.00;100973.94;4944693;28;20147;-78
2022/12/20 06:26:22;;;;;;;5.38;3.92;;;;;;;8.20;100.00;100976.56;4932184;28;20047;-78
2022/12/20 06:28:51;;;;;;;5.72;3.78;;;;;;;8.19;100.00;100970.44;4928190;28;20044;-77
2022/12/20 06:31:25;;;;;;;4.68;3.67;;;;;;;8.21;100.00;100975.72;4938569;29;20404;-78
2022/12/20 06:33:54;;;;;;;8.65;4.38;;;;;;;8.23;100.00;100979.25;4969799;28;20058;-78
2022/12/20 06:36:25;;;;;;;4.75;3.90;;;;;;;8.24;100.00;100972.25;4958304;28;20057;-78
2022/12/20 06:38:54;;;;;;;5.88;4.15;;;;;;;8.24;100.00;100977.47;4963910;28;20054;-79
2022/12/20 06:41:22;;;;;;;4.78;3.58;;;;;;;8.25;100.00;100974.03;4941475;28;20059;-78
2022/12/20 06:43:51;;;;;;;4.32;3.78;;;;;;;8.27;100.00;100972.28;4963537;28;20050;-79
2022/12/20 06:46:19;;;;;;;5.60;3.72;;;;;;;8.27;100.00;100982.78;4952695;28;20049;-79
2022/12/20 06:48:47;;;;;;;3.70;3.28;;;;;;;8.27;100.00;100977.53;4987758;28;20492;-78
2022/12/20 06:51:16;;;;;;;4.50;3.80;;;;;;;8.28;100.00;100971.41;4956020;28;20047;-79
2022/12/20 06:53:43;;;;;;;5.15;4.15;;;;;;;8.27;100.00;100967.03;4965490;28;20054;-79
2022/12/20 06:56:11;;;;;;;7.13;3.85;;;;;;;8.27;100.00;100967.03;4981298;28;20062;-79
2022/12/20 06:58:40;;;;;;;5.35;4.13;;;;;;;8.28;100.00;100974.03;4955695;28;20058;-79
2022/12/20 07:01:08;;;;;;;4.78;4.05;;;;;;;8.29;100.00;100971.44;4978173;28;20047;-78
2022/12/20 07:03:35;;;;;;;4.63;3.80;;;;;;;8.33;100.00;100972.38;4952874;28;20081;-79
2022/12/20 07:06:04;;;;;;;6.70;3.63;;;;;;;8.35;100.00;100966.28;4958710;28;20042;-79
2022/12/20 07:08:31;;;;;;;4.63;3.65;;;;;;;8.37;100.00;100972.47;4970666;28;20069;-79
2022/12/20 07:11:05;;;;;;;4.05;3.58;;;;;;;8.39;100.00;100969.81;4949474;28;20047;-79
2022/12/20 07:13:33;;;;;;;3.70;3.40;;;;;;;8.40;100.00;100963.72;4944945;28;20045;-79
2022/12/20 07:16:02;;;;;;;3.95;3.65;;;;;;;8.42;100.00;100967.28;4980432;28;20527;-78
2022/12/20 07:18:30;;;;;;;4.25;3.83;;;;;;;8.44;100.00;100955.06;4976000;28;20055;-79
2022/12/20 07:21:00;;;;;;;7.57;3.88;;;;;;;8.45;100.00;100964.72;4962576;28;20055;-79
2022/12/20 07:23:27;;;;;;;4.78;3.78;;;;;;;8.47;100.00;100960.38;4985220;28;20046;-79
2022/12/20 07:25:57;;;;;;;5.72;3.80;;;;;;;8.50;100.00;100963.00;4960439;28;20047;-79
2022/12/20 07:28:26;;;;;;;5.15;4.00;;;;;;;8.52;100.00;100960.41;4959095;28;20047;-79
2022/12/20 07:30:53;;;;;;;4.28;3.85;;;;;;;8.52;100.00;100966.53;4974486;28;20046;-79
2022/12/20 07:33:21;;;;;;;6.70;4.65;;;;;;;8.49;100.00;100963.88;4973226;28;20054;-80
2022/12/20 07:35:48;;;;;;;4.63;4.18;;;;;;;8.49;100.00;100969.16;4985673;28;20051;-78
2022/12/20 07:38:21;;;;;;;7.88;4.70;;;;;;;8.47;100.00;100963.00;4961749;28;20049;-79
2022/12/20 07:40:48;;;;;;;8.68;5.35;;;;;;;8.45;100.00;100971.69;4986068;28;20120;-79
2022/12/20 07:43:16;;;;;;;5.78;4.68;;;;;;;8.44;100.00;100969.94;4976508;28;20038;-79
2022/12/20 07:45:43;;;;;;;9.70;5.20;;;;;;;8.41;100.00;100965.47;4956206;28;20046;-79
2022/12/20 07:48:12;;;;;;;7.28;5.13;;;;;;;8.40;100.00;100961.09;4970999;28;20042;-79
2022/12/20 07:50:46;;;;;;;6.95;6.18;;;;;;;8.38;100.00;100954.94;4972634;28;20043;-79
2022/12/20 07:53:13;;;;;;;7.97;5.75;;;;;;;8.38;100.00;100957.56;4977235;28;20046;-80
2022/12/20 07:55:43;;;;;;;6.80;6.10;;;;;;;8.38;100.00;100960.19;4989383;28;20049;-79
2022/12/20 07:58:12;;;;;;;7.95;5.93;;;;;;;8.37;100.00;100964.59;4988425;28;20042;-80
2022/12/20 08:00:40;;;;;;;6.50;5.50;;;;;;;8.35;100.00;100966.28;4942193;28;20138;-80
2022/12/20 08:03:22;;;;;;;6.82;5.45;;;;;;;8.35;100.00;100966.28;4978651;28;20052;-79
2022/12/20 08:05:55;;;;;;;7.75;5.90;;;;;;;8.35;100.00;100968.91;4987447;28;20050;-79
2022/12/20 08:08:23;;;;;;;7.82;5.97;;;;;;;8.34;100.00;100963.66;4946191;28;20046;-80
2022/12/20 08:10:53;;;;;;;;;;;;;;;8.34;100.00;100961.03;4972814;28;20046;-80
2022/12/20 08:13:22;;;;;;;7.35;6.18;;;;;;;8.34;100.00;100958.41;4972367;28;19932;-77
2022/12/20 08:15:49;;;;;;;7.65;6.13;;;;;;;8.36;100.00;100957.56;4940998;28;20038;-77
2022/12/20 08:18:16;;;;;;;8.73;6.88;;;;;;;8.40;100.00;100958.47;4972715;28;20053;-77
2022/12/20 08:20:44;;;;;;;9.02;7.03;;;;;;;8.46;100.00;100963.84;4931418;28;20047;-77
2022/12/20 08:23:11;;;;;;;9.60;6.72;;;;;;;8.48;100.00;100956.84;4964488;28;20050;-77
2022/12/20 08:25:38;;;;;;;22.98;7.30;;;;;;;8.55;100.00;100944.72;4984532;28;20066;-77
2022/12/20 08:28:08;;;;;;;334.92;34.05;;;;;;;8.58;100.00;100949.97;4961781;28;20042;-77
2022/12/20 08:30:35;;;;;;;30.05;7.97;;;;;;;8.62;100.00;100953.53;4942842;28;20061;-77
2022/12/20 08:33:05;;;;;;;231.40;24.65;;;;;;;8.61;100.00;100960.53;4983114;28;20049;-77
2022/12/20 08:35:33;;;;;;;7.55;6.60;;;;;;;8.66;100.00;100950.06;4979661;28;20764;-77
2022/12/20 08:38:00;;;;;;;134.88;16.67;;;;;;;8.67;100.00;100962.38;4990747;28;20476;-77
2022/12/20 08:40:28;;;;;;;7.53;5.78;;;;;;;8.69;100.00;100960.63;4964660;28;20195;-77
2022/12/20 08:42:57;;;;;;;7.55;6.63;;;;;;;8.71;100.00;100956.28;4982447;28;20037;-78
2022/12/20 08:45:24;;;;;;;11.55;6.90;;;;;;;8.71;100.00;100938.75;4991294;28;20061;-77
2022/12/20 08:47:52;;;;;;;7.30;6.10;;;;;;;8.72;100.00;100927.41;4958826;28;20039;-77
2022/12/20 08:50:20;;;;;;;8.40;6.45;;;;;;;8.74;100.00;100930.94;4980031;28;20487;-77
2022/12/20 08:52:47;;;;;;;8.00;6.45;;;;;;;8.71;100.00;100930.88;4960299;28;20039;-77
2022/12/20 08:55:14;;;;;;;6.80;5.78;;;;;;;8.67;100.00;100931.72;4981826;28;20046;-77
2022/12/20 08:57:42;;;;;;;12.65;6.28;;;;;;;8.67;100.00;100942.22;5002583;28;20047;-78
2022/12/20 09:00:10;;;;;;;8.38;6.03;;;;;;;8.65;100.00;100929.94;4970424;28;20046;-78
2022/12/20 09:02:39;;;;;;;6.80;5.97;;;;;;;8.65;100.00;100922.06;4920283;28;20053;-77
2022/12/20 09:05:07;;;;;;;10.40;5.95;;;;;;;8.64;100.00;100925.53;4972803;28;20057;-77
2022/12/20 09:07:34;;;;;;;6.20;5.60;;;;;;;8.61;100.00;100921.13;4968679;28;20057;-78
2022/12/20 09:10:02;;;;;;;5.80;5.20;;;;;;;8.60;100.00;100919.38;4964644;28;20062;-78
2022/12/20 09:12:29;;;;;;;6.50;5.78;;;;;;;8.59;100.00;100917.59;4981995;28;20042;-77
2022/12/20 09:14:57;;;;;;;10.43;5.13;;;;;;;8.60;100.00;100914.13;4942105;28;20054;-77
2022/12/20 09:17:24;;;;;;;7.47;4.80;;;;;;;8.62;100.00;100911.50;4946121;28;20427;-77
2022/12/20 09:19:52;;;;;;;8.10;5.38;;;;;;;8.62;100.00;100924.63;4984990;28;20070;-77
2022/12/20 09:22:20;;;;;;;5.88;5.28;;;;;;;8.60;100.00;100924.66;4983385;28;20045;-77
2022/12/20 09:24:48;;;;;;;7.65;6.35;;;;;;;8.59;100.00;100917.59;4970819;28;20050;-77
2022/12/20 09:27:15;;;;;;;6.65;5.10;;;;;;;8.58;100.00;100916.75;4994521;28;20046;-77
2022/12/20 09:29:42;;;;;;;5.22;4.60;;;;;;;8.57;100.00;100917.59;4999125;28;20046;-77
2022/12/20 09:32:10;;;;;;;7.78;4.45;;;;;;;8.58;100.00;100915.84;4936982;28;20060;-77
2022/12/20 09:34:38;;;;;;;7.78;4.28;;;;;;;8.56;100.00;100910.59;4990830;28;20042;-77
2022/12/20 09:37:05;;;;;;;5.95;4.40;;;;;;;8.56;100.00;100902.72;4927613;28;20058;-77
2022/12/20 09:39:33;;;;;;;6.93;4.63;;;;;;;8.59;100.00;100901.84;4947230;28;20055;-77
2022/12/20 09:42:08;;;;;;;5.20;4.25;;;;;;;8.59;100.00;100913.22;4950169;28;20053;-77
2022/12/20 09:44:39;;;;;;;7.15;4.55;;;;;;;8.60;100.00;100911.50;4957052;28;20511;-77
2022/12/20 09:47:20;;;;;;;4.10;3.70;;;;;;;8.63;100.00;100918.53;4946272;28;20047;-77
2022/12/20 09:49:52;;;;;;;4.82;3.60;;;;;;;8.66;100.00;100921.19;4930358;28;20043;-77
2022/12/20 09:52:48;;;;;;;8.40;4.50;;;;;;;8.69;100.00;100913.34;4947960;28;20059;-77
2022/12/20 09:55:33;;;;;;;5.88;3.85;;;;;;;8.72;100.00;100909.00;4956133;28;20039;-77
2022/12/20 09:58:23;;;;;;;7.22;3.70;;;;;;;8.76;100.00;100916.06;4945459;28;20051;-78
2022/12/20 10:00:51;;;;;;;4.63;3.38;;;;;;;8.81;100.00;100916.13;4960602;28;20074;-77
2022/12/20 10:03:24;;;;;;;5.88;3.85;;;;;;;8.86;100.00;100921.44;4923607;28;20115;-77
2022/12/20 10:05:59;;;;;;;10.32;4.47;;;;;;;8.91;100.00;100915.34;4952966;28;20068;-77
2022/12/20 10:08:55;;;;;;;4.72;4.22;;;;;;;8.97;100.00;100912.78;4958030;28;20046;-77
2022/12/20 10:12:18;;;;;;;5.75;3.85;;;;;;;9.01;100.00;100911.06;4935959;28;20446;-77
2022/12/20 10:15:00;;;;;;;5.53;3.67;;;;;;;9.04;100.00;100910.25;4921043;28;20055;-77
2022/12/20 10:17:56;;;;;;;6.65;3.95;;;;;;;9.06;100.00;100898.00;4941523;28;20054;-77
2022/12/20 10:20:35;;;;;;;4.40;3.50;;;;;;;9.08;100.00;100891.88;4921932;28;20043;-77
2022/12/20 10:23:41;;;;;;;4.30;3.10;;;;;;;9.08;100.00;100896.25;4923466;29;20051;-77
2022/12/20 10:26:11;;;;;;;3.38;3.13;;;;;;;9.12;100.00;100882.28;4960519;28;20043;-77
2022/12/20 10:28:39;;;;;;;6.00;2.92;;;;;;;9.14;100.00;100888.44;4932615;28;20050;-77
2022/12/20 10:31:12;;;;;;;7.05;3.20;;;;;;;9.16;100.00;100889.31;4954150;28;20497;-77
2022/12/20 10:33:41;;;;;;;3.70;3.38;;;;;;;9.20;100.00;100884.97;4919147;29;20050;-77
2022/12/20 10:36:19;;;;;;;4.35;3.03;;;;;;;9.23;100.00;100885.91;4933611;28;20497;-78
2022/12/20 10:38:49;;;;;;;5.13;3.65;;;;;;;9.26;100.00;100895.53;4967159;28;20482;-77
2022/12/20 10:41:19;;;;;;;3.97;3.30;;;;;;;9.27;100.00;100882.41;4968545;28;20062;-76
2022/12/20 10:44:13;;;;;;;6.45;3.30;;;;;;;9.30;100.00;100874.56;4959618;28;20043;-77
2022/12/20 10:46:47;;;;;;;4.72;2.70;;;;;;;9.31;100.00;100872.81;4957681;28;20047;-77
2022/12/20 10:49:33;;;;;;;6.20;3.50;;;;;;;9.32;100.00;100862.31;4974486;28;21118;-77
2022/12/20 10:52:07;;;;;;;5.88;3.08;;;;;;;9.33;100.00;100861.44;4976753;28;20054;-77
2022/12/20 10:54:36;;;;;;;3.42;2.90;;;;;;;9.36;100.00;100864.09;4959594;28;20054;-77
2022/12/20 10:57:23;;;;;;;4.93;3.15;;;;;;;9.38;100.00;100871.13;4961052;28;20520;-77
2022/12/20 10:59:59;;;;;;;3.65;3.15;;;;;;;9.39;100.00;100862.34;4967118;28;20038;-77
2022/12/20 11:02:32;;;;;;;3.00;2.70;;;;;;;9.39;100.00;100860.59;4978069;28;20054;-77
2022/12/20 11:05:11;;;;;;;5.10;2.97;;;;;;;9.41;100.00;100863.25;4934010;28;20050;-77
2022/12/20 11:08:15;;;;;;;3.55;2.67;;;;;;;9.42;100.00;100860.63;4966040;28;20045;-77
2022/12/20 11:11:21;;;;;;;3.75;3.10;;;;;;;9.44;100.00;100853.63;4979451;28;20047;-77
2022/12/20 11:13:51;;;;;;;5.68;2.80;;;;;;;9.46;100.00;100853.66;4962567;28;20051;-77
2022/12/20 11:16:23;;;;;;;3.80;3.42;;;;;;;9.48;100.00;100857.16;4969320;28;20058;-77
2022/12/20 11:19:05;;;;;;;3.70;2.88;;;;;;;9.47;100.00;100848.41;4981040;28;20535;-77
2022/12/20 11:21:57;;;;;;;6.07;3.42;;;;;;;9.47;100.00;100852.75;4929816;28;20073;-77
2022/12/20 11:24:44;;;;;;;4.57;3.30;;;;;;;9.45;100.00;100851.88;4974190;28;20061;-77
2022/12/20 11:27:29;;;;;;;4.05;3.05;;;;;;;9.43;100.00;100843.09;4985711;28;20051;-77
2022/12/20 11:30:08;;;;;;;3.83;2.95;;;;;;;9.42;100.00;100838.72;4957143;28;20416;-77
2022/12/20 11:32:57;;;;;;;3.90;2.72;;;;;;;9.40;100.00;100840.47;4975330;28;20050;-78
2022/12/20 11:35:38;;;;;;;5.28;2.92;;;;;;;9.38;100.00;100844.84;4979883;28;20058;-77
2022/12/20 11:38:17;;;;;;;3.42;3.10;;;;;;;9.38;100.00;100842.19;4947459;28;20046;-77
2022/12/20 11:40:57;;;;;;;3.78;3.10;;;;;;;9.35;100.00;100838.66;4979588;28;20046;-77
2022/12/20 11:43:33;;;;;;;4.65;3.38;;;;;;;9.35;100.00;100843.03;4983248;28;20065;-77
2022/12/20 11:46:45;;;;;;;5.78;3.33;;;;;;;9.34;100.00;100847.44;4973316;28;20122;-78
2022/12/20 11:49:32;;;;;;;5.82;3.42;;;;;;;9.34;100.00;100847.44;4982894;28;20042;-77
2022/12/20 11:52:13;;;;;;;4.20;3.22;;;;;;;9.35;100.00;100843.03;4951570;28;20051;-77
2022/12/20 11:54:46;;;;;;;4.80;3.50;;;;;;;9.35;100.00;100848.28;4941509;28;20058;-77
2022/12/20 11:57:23;;;;;;;3.40;3.03;;;;;;;9.34;100.00;100847.44;4974825;28;20531;-77